• Join FlightAware (Why Join?)
  • Login
  • US Flag 
04:54AM EDT


 

Airport Tracker/Info


-or-


 

Live Flight TrackerFlight Track Log ✈ CSJ405 ✈ 06-May-2013 ✈ KCAK - KCDW

Flight Track Log - Related Links

Times and Time Zones

All times are in EDT time to prevent confusion due to time zone crossing. See the CSJ405 flight status page for this flight to view local times or setup timezone preferences in your user account.

Time Position Orientation Groundspeed Altitude Reporting Facility
EDT Latitude Longitude Course Direction KTS MPH feet Rate Location/Type
04:53PM 40.8900 -81.3742 90° East 115 132 3,200  Level Cleveland Center
04:55PM 40.9135 -81.2795 72° East  Level FlightAware Approximate
04:56PM 40.8969 -81.2369 72° East 125 144 5,500  Level Cleveland Center
04:57PM 40.9167 -81.0932 90° East  Level FlightAware Approximate
04:58PM 40.9167 -81.0362 90° East  Level FlightAware Approximate
04:58PM 40.8997 -81.1408 88° East 125 144 6,800  Level Cleveland Center
04:59PM 40.9039 -81.0997 82° East 125 144 7,300 540 Climbing Cleveland Center
05:00PM 40.9022 -81.0500 93° East 125 144 7,900 660 Climbing Cleveland Center
05:01PM 40.9003 -81.0033 93° East 125 144 8,700 540 Climbing Cleveland Center
05:02PM 40.8983 -80.9567 93° East 125 144 9,000 180 Climbing Cleveland Center
05:03PM 40.9069 -80.9017 78° East 130 150 9,100  Climbing Cleveland Center
05:04PM 40.9092 -80.8442 87° East 142 163 9,000 -60 Descending Cleveland Center
05:06PM 40.9156 -80.7233 86° East 147 169 9,000  Level Cleveland Center
05:08PM 40.9094 -80.6078 94° East 147 169 9,100  Climbing Cleveland Center
05:09PM 40.9136 -80.5528 84° East 155 178 9,100  Level Cleveland Center
05:10PM 40.9136 -80.4953 90° East 155 178 9,100  Level Cleveland Center
05:12PM 40.9174 -80.3939 87° East  Level FlightAware Approximate
05:13PM 40.9175 -80.3303 87° East 163 188 9,100  Level Cleveland Center
05:15PM 40.9194 -80.2278 89° East  Level Estimated
05:16PM 40.9211 -80.1628 89° East 152 175 9,000  Level Cleveland Center
05:18PM 40.9269 -80.0444 86° East 152 175 9,100  Climbing Cleveland Center
05:19PM 40.9313 -79.9957 87° East  Level FlightAware Approximate
05:19PM 40.9286 -79.9894 88° East 152 175 9,100  Level Cleveland Center
05:20PM 40.9283 -79.9292 90° East 157 181 9,000  Descending Cleveland Center
05:22PM 40.9304 -79.8286 88° East  Level FlightAware Approximate
05:23PM 40.9314 -79.7614 88° East 157 181 9,100  Level Cleveland Center
05:25PM 40.9334 -79.6599 88° East  Level FlightAware Approximate
05:26PM 40.9342 -79.5936 88° East 157 181 9,100  Level Cleveland Center
05:28PM 40.9361 -79.4930 89° East  Level FlightAware Approximate
05:31PM 40.9356 -79.3050 89° East 157 181 9,000  Level Cleveland Center
05:33PM 40.9313 -79.2020 93° East  Level FlightAware Approximate
05:34PM 40.9272 -79.1347 93° East 157 181 9,000  Level Cleveland Center
05:35PM 40.9427 -79.0944 89° East  Level FlightAware Approximate
05:35PM 40.9244 -79.0772 94° East 157 181 9,100  Level Cleveland Center
05:36PM 40.9435 -79.0374 89° East  Level FlightAware Approximate
05:37PM 40.9202 -78.9723 93° East  Level FlightAware Approximate
05:38PM 40.9181 -78.9097 93° East 157 181 9,100  Level Cleveland Center
05:40PM 40.9108 -78.7897 95° East 156 180 9,000  Descending New York Center
05:42PM 40.9078 -78.6794 92° East 161 185 9,200 60 Climbing New York Center
05:43PM 40.9056 -78.6189 93° East 161 185 9,200 -60 Level New York Center
05:44PM 40.9031 -78.5608 93° East 161 185 9,100  Descending New York Center
05:45PM 40.9033 -78.4950 90° East 161 185 9,200  Climbing New York Center
05:47PM 40.8981 -78.3817 93° East 156 180 9,200 -60 Level New York Center
05:48PM 40.8933 -78.3236 96° East 156 180 9,100  Descending New York Center
05:49PM 40.8908 -78.2683 93° East 156 180 9,200  Climbing New York Center
05:50PM 40.8881 -78.2131 94° East 156 180 9,200  Level New York Center
05:51PM 40.8856 -78.1522 93° East 156 180 9,200 -60 Level New York Center
05:52PM 40.8828 -78.0944 94° East 161 185 9,100 -60 Descending New York Center
05:53PM 40.8800 -78.0392 94° East 161 185 9,100  Level New York Center
05:54PM 40.8772 -77.9811 94° East 161 185 9,100  Level New York Center
05:55PM 40.8744 -77.9233 94° East 161 185 9,100  Level New York Center
05:57PM 40.8693 -77.8225 94° East  Level FlightAware Approximate
05:57PM 40.8692 -77.8047 94° East 161 185 9,100  Level New York Center
05:58PM 40.8664 -77.7439 93° East 161 185 9,100  Level New York Center
06:00PM 40.8611 -77.6451 94° East  Level FlightAware Approximate
06:02PM 40.8586 -77.5208 94° East 160 184 9,100  Level New York Center
06:03PM 40.8536 -77.4600 96° East 160 184 9,100 -60 Level New York Center
06:05PM 40.8481 -77.3358 93° East 160 184 9,000 -60 Descending New York Center
06:07PM 40.8380 -77.2343 94° East  Level FlightAware Approximate
06:07PM 40.8378 -77.2197 97° East 160 184 9,000  Level New York Center
06:08PM 40.8347 -77.1617 94° East 160 184 9,000  Level New York Center
06:09PM 40.8336 -77.1042 91° East 160 184 9,000  Level New York Center
06:10PM 40.8286 -77.0433 96° East 160 184 9,000  Level New York Center
06:12PM 40.8222 -76.9275 94° East 160 184 9,000  Level New York Center
06:14PM 40.8197 -76.8092 92° East 160 184 9,000  Level New York Center
06:16PM 40.8264 -76.7098 85° East  Level FlightAware Approximate
06:17PM 40.8350 -76.6322 85° East 160 184 9,000  Level New York Center
06:18PM 40.8417 -76.5808 80° East 160 184 9,000  Level New York Center
06:20PM 40.8454 -76.4802 87° East  Level FlightAware Approximate
06:20PM 40.8536 -76.4639 87° East 160 184 9,000  Level New York Center
06:22PM 40.8658 -76.3414 82° East 160 184 8,800 -240 Descending New York Center
06:23PM 40.8772 -76.2708 78° East 170 196 8,400 -600 Descending New York Center
06:24PM 40.8847 -76.2000 82° East 176 203 7,700 -660 Descending New York Center
06:25PM 40.8897 -76.1347 84° East 176 203 7,100 -660 Descending New York Center
06:26PM 40.8950 -76.0692 84° East 176 203 6,500 -660 Descending New York Center
06:27PM 40.8997 -76.0092 84° East 176 203 5,900 -120 Descending New York Center
06:29PM 40.9056 -75.9093 86° East  Level FlightAware Approximate
06:36PM 40.9371 -75.5029 83° East  Level FlightAware Approximate
06:37PM 40.9426 -75.4450 83° East  Level FlightAware Approximate
06:38PM 40.9481 -75.3871 83° East  Level FlightAware Approximate
06:39PM 40.9521 -75.3290 86° East  Level FlightAware Approximate
06:40PM 40.9554 -75.2708 86° East  Level FlightAware Approximate
06:41PM 40.9587 -75.2125 86° East  Level FlightAware Approximate
06:41PM 40.9667 -75.1667 82° East 167 192 5,100  Level New York TRACON
06:42PM 40.9619 -75.1543 86° East  Level FlightAware Approximate
06:42PM 40.9833 -75.1167 66° East 167 192 5,100  Level New York TRACON
06:43PM 40.9651 -75.0961 86° East  Level FlightAware Approximate
06:43PM 40.9667 -75.0500 108° East 168 193 5,100  Level New York TRACON
06:44PM 40.9699 -75.0381 82° East  Level FlightAware Approximate
06:44PM 40.9667 -74.9833 90° East 168 193 5,100  Level New York TRACON
06:45PM 40.9763 -74.9803 82° East  Level FlightAware Approximate
06:45PM 40.9500 -74.9167 108° East 168 193 5,100  Level New York TRACON
06:46PM 40.9827 -74.9225 82° East  Level FlightAware Approximate
06:46PM 40.9500 -74.8667 90° East 181 208 4,400  Level New York TRACON
06:47PM 40.9333 -74.8000 108° East 177 204 4,000 -240 Descending New York TRACON
06:48PM 40.9333 -74.7333 90° East 168 193 4,000  Level New York TRACON
06:49PM 40.9333 -74.6667 90° East 163 188 4,000 -240 Level New York TRACON
06:50PM 40.9167 -74.6167 114° Southeast 170 196 3,600 -540 Descending New York TRACON
06:51PM 40.9000 -74.5500 108° East 171 197 3,000 -300 Descending New York TRACON
06:52PM 40.9000 -74.5000 90° East 162 186 3,000 -360 Level New York TRACON
06:54PM 40.9000 -74.3833 90° East 161 185 2,000 -300 Descending New York TRACON
06:56PM 40.9333 -74.2833 66° East 141 162 2,000 -240 Level New York TRACON
06:58PM 40.8833 -74.2667 166° South 117 135 1,200 -420 Descending New York TRACON
07:00PM 40.8667 -74.2667 102° East  Level FlightAware Approximate
07:07PM 40.8752 -74.2814 102° East  Level Estimated
07:08PM 40.8752 -74.2814 102° East  Level Estimated
07:09PM 40.8752 -74.2814 102° East  Level Estimated